Stations météo

réclame
Mon MeteoGroup
Vinaroz, Espagne (8239): Température de l'air & dewpoint: 20.09.2018 17:00:00 - 26.09.2018 17:00:00 (CEST)Vinaroz, Espagne (8239): Vitesse du vent & gusts: 20.09.2018 17:00:00 - 26.09.2018 17:00:00 (CEST)Vinaroz, Espagne (8239): Direction du vent: 20.09.2018 17:00:00 - 26.09.2018 17:00:00 (CEST)Vinaroz, Espagne (8239): Quantités de précipitations: 20.09.2018 17:00:00 - 26.09.2018 17:00:00 (CEST)
Date & Time tt [°C] td [°C] ff [km/h] ff [knt] fx [km/h] fx [knt] dd rr [mm]
26.09.2018 17:00:00 - - - - - - - -
26.09.2018 16:00:00 23,6 12,8 11 6 29 16 NE 0,0
26.09.2018 15:00:00 23,4 12,4 13 7 29 16 NE 0,0
26.09.2018 14:00:00 23,5 12,2 15 8 39 21 NE -
26.09.2018 13:00:00 23,1 12,4 17 9 38 20 ENE 0,0
26.09.2018 12:00:00 23,8 13,4 13 7 33 18 NE 0,0
26.09.2018 11:00:00 22,0 13,9 16 9 32 17 NE 0,0
26.09.2018 10:00:00 20,8 13,9 16 9 30 16 NNE 0,0
26.09.2018 09:00:00 18,9 15,5 10 5 18 10 N 0,1
26.09.2018 08:00:00 18,4 15,3 11 6 19 11 N -
26.09.2018 07:00:00 18,3 14,8 12 7 22 12 N 0,7
26.09.2018 06:00:00 20,1 14,7 11 6 22 12 NNE 0,0
26.09.2018 05:00:00 20,0 14,3 15 8 30 16 NNE 0,0
26.09.2018 04:00:00 20,1 13,1 10 5 19 11 NNE 0,0
26.09.2018 03:00:00 20,9 14,0 11 6 21 11 NNE 0,0
26.09.2018 02:00:00 20,9 14,5 7 4 12 7 NNE -
26.09.2018 01:00:00 21,1 14,0 5 3 8 4 N 0,0
26.09.2018 00:00:00 21,0 11,9 5 3 8 4 NNE 0,0
25.09.2018 23:00:00 21,0 11,9 4 2 8 4 N 0,0
25.09.2018 22:00:00 21,1 12,0 4 2 7 4 N 0,0
25.09.2018 21:00:00 21,0 11,9 4 2 8 5 N 0,0
25.09.2018 20:00:00 - - - - - - - -
25.09.2018 19:00:00 21,7 9,6 3 2 8 5 NNW 0,0
25.09.2018 18:00:00 21,6 8,5 5 3 9 5 NNW 0,0
25.09.2018 17:00:00 22,1 7,8 1 0 9 5 NNW 0,0
25.09.2018 16:00:00 21,7 6,7 5 3 11 6 NNE 0,0
25.09.2018 15:00:00 21,3 5,9 8 5 17 9 NNE 0,0
25.09.2018 14:00:00 20,5 5,0 10 5 23 13 NNE -
25.09.2018 13:00:00 19,8 4,3 13 7 26 14 NNE 0,0
25.09.2018 12:00:00 18,8 3,8 16 8 26 14 NNE 0,0
25.09.2018 11:00:00 18,6 3,6 14 8 26 14 NNE 0,0
25.09.2018 10:00:00 18,0 3,0 15 8 27 15 NNE 0,0
25.09.2018 09:00:00 18,0 2,3 14 8 31 17 NNE 0,0
25.09.2018 08:00:00 18,1 1,9 14 8 24 13 NNE -
25.09.2018 07:00:00 18,4 1,5 12 6 21 11 NNE 0,0
25.09.2018 06:00:00 19,0 0,6 10 6 23 13 NNE 0,0
25.09.2018 05:00:00 19,5 0,4 13 7 25 13 NE 0,0
25.09.2018 04:00:00 20,2 1,1 13 7 23 13 NE 0,0
25.09.2018 03:00:00 21,1 3,2 9 5 18 10 NE 0,0
25.09.2018 02:00:00 21,3 4,3 8 5 15 8 NNE -
25.09.2018 01:00:00 21,6 3,8 8 4 16 9 NNE 0,0
25.09.2018 00:00:00 21,2 5,1 9 5 14 8 NNE 0,0
24.09.2018 23:00:00 22,0 7,4 6 3 16 9 NNE 0,0
24.09.2018 22:00:00 22,6 17,5 5 3 9 5 NE 0,0
24.09.2018 21:00:00 23,5 17,2 3 1 9 5 ESE 0,0
24.09.2018 20:00:00 24,4 16,9 5 3 15 8 SSE -
24.09.2018 19:00:00 26,5 15,5 9 5 22 12 SSW 0,0
24.09.2018 18:00:00 27,1 14,8 14 8 26 14 SSW 0,0
24.09.2018 17:00:00 28,9 14,3 13 7 25 13 SW 0,0
24.09.2018 16:00:00 29,7 13,9 14 7 26 14 SSW 0,0
24.09.2018 15:00:00 31,1 13,4 12 7 22 12 S 0,0
24.09.2018 14:00:00 31,4 13,7 11 6 27 15 S -
24.09.2018 13:00:00 31,8 12,1 6 3 19 11 NW 0,0
24.09.2018 12:00:00 29,7 13,1 6 3 17 9 S 0,0
24.09.2018 11:00:00 28,1 13,3 9 5 18 10 SSE 0,0
24.09.2018 10:00:00 27,2 14,2 4 2 14 7 SSW 0,0
24.09.2018 09:00:00 22,3 15,9 5 3 9 5 E 0,0
24.09.2018 08:00:00 20,6 13,8 5 3 14 8 NE -
24.09.2018 07:00:00 19,0 16,0 7 4 12 7 N 0,0
24.09.2018 06:00:00 20,2 17,1 1 1 8 4 ESE 0,0
24.09.2018 05:00:00 21,0 17,8 2 1 9 5 ENE 0,0
24.09.2018 04:00:00 21,4 18,2 6 3 13 7 NE 0,0
24.09.2018 03:00:00 21,9 18,7 9 5 16 9 NE 0,0
24.09.2018 02:00:00 21,3 18,1 6 3 15 8 NNE -
24.09.2018 01:00:00 21,9 18,5 7 4 11 6 N 0,0
24.09.2018 00:00:00 22,3 18,9 1 1 11 6 NNE 0,0
23.09.2018 23:00:00 22,8 19,3 5 3 8 4 NE 0,0
23.09.2018 22:00:00 23,8 20,3 2 1 4 2 E 0,0
23.09.2018 21:00:00 24,3 20,8 2 1 7 4 S 0,0
23.09.2018 20:00:00 25,2 20,9 3 2 13 7 S -
23.09.2018 19:00:00 26,8 19,9 8 5 17 9 SSW 0,0
23.09.2018 18:00:00 28,6 17,1 9 5 19 10 SSW 0,0
23.09.2018 17:00:00 29,8 15,9 11 6 18 10 SSW 0,0
23.09.2018 16:00:00 29,4 17,2 9 5 19 10 S 0,0
23.09.2018 15:00:00 29,5 18,3 9 5 18 10 S 0,0
23.09.2018 14:00:00 29,1 18,2 8 4 16 9 S -
23.09.2018 13:00:00 29,0 17,9 8 5 18 10 S 0,0
23.09.2018 12:00:00 28,3 18,7 8 4 18 10 S 0,0
23.09.2018 11:00:00 27,1 19,2 1 1 8 5 NE 0,0
23.09.2018 10:00:00 24,7 20,2 5 3 9 5 NNE 0,0
23.09.2018 09:00:00 21,9 18,7 4 2 8 4 NE 0,0
23.09.2018 08:00:00 21,1 17,9 4 2 11 6 NNE -
23.09.2018 07:00:00 21,1 17,9 7 4 11 6 NE 0,0
23.09.2018 06:00:00 21,2 18,0 6 4 11 6 NNE 0,0
23.09.2018 05:00:00 20,6 17,4 7 4 13 7 NNE 0,0
23.09.2018 04:00:00 20,3 17,1 8 4 12 7 NE 0,0
23.09.2018 03:00:00 20,3 17,1 6 3 15 8 NNE 0,0
23.09.2018 02:00:00 20,5 17,3 6 4 10 5 NNE -
23.09.2018 01:00:00 20,7 17,3 5 3 8 4 NNE 0,0
23.09.2018 00:00:00 21,6 18,2 4 2 8 5 NNE 0,0
22.09.2018 23:00:00 22,3 19,1 5 3 7 4 NNE 0,0
22.09.2018 22:00:00 23,5 20,1 1 1 4 2 ENE 0,0
22.09.2018 21:00:00 23,8 20,1 2 1 9 5 SSE 0,0
22.09.2018 20:00:00 24,8 20,5 5 3 16 9 SSW -
22.09.2018 19:00:00 26,3 19,9 9 5 19 10 SSW 0,0
22.09.2018 18:00:00 27,3 18,6 11 6 19 11 SSW 0,0
22.09.2018 17:00:00 28,6 17,8 12 6 21 12 SSW 0,0
22.09.2018 16:00:00 28,3 17,2 10 5 19 11 SSW 0,0
22.09.2018 15:00:00 29,3 17,5 9 5 23 12 SSW 0,0
22.09.2018 14:00:00 29,9 17,4 10 5 19 10 S -
22.09.2018 13:00:00 29,2 17,1 8 4 16 8 S 0,0
22.09.2018 12:00:00 28,1 16,0 7 4 16 9 S 0,0
22.09.2018 11:00:00 28,2 14,4 4 2 8 4 S 0,0
22.09.2018 10:00:00 25,1 15,7 2 1 8 4 ENE 0,0
22.09.2018 09:00:00 20,6 15,8 5 3 7 4 NE 0,0
22.09.2018 08:00:00 20,0 16,8 0 0 10 6 N -
22.09.2018 07:00:00 20,4 17,4 0 0 0 0 N 0,0
22.09.2018 06:00:00 20,5 17,3 0 0 7 4 N 0,0
22.09.2018 05:00:00 20,8 17,8 0 0 10 5 N 0,0
22.09.2018 04:00:00 21,9 18,7 8 4 11 6 NNE 0,0
22.09.2018 03:00:00 21,3 18,1 3 2 11 6 N 0,0
22.09.2018 02:00:00 21,6 17,8 5 3 9 5 NNE -
22.09.2018 01:00:00 22,0 18,2 6 3 9 5 NE 0,0
22.09.2018 00:00:00 22,0 17,8 4 2 13 7 NNE 0,0
21.09.2018 23:00:00 22,8 19,3 4 2 6 3 NNE 0,0
21.09.2018 22:00:00 23,4 19,3 1 0 10 5 SE 0,0
21.09.2018 21:00:00 24,0 19,9 4 2 9 5 SSE 0,0
21.09.2018 20:00:00 24,9 19,1 4 2 11 6 SSE -
21.09.2018 19:00:00 26,4 18,0 7 4 14 7 S 0,0
21.09.2018 18:00:00 27,8 15,4 8 5 21 12 S 0,0
21.09.2018 17:00:00 29,9 15,3 9 5 20 11 S 0,0
21.09.2018 16:00:00 30,4 14,5 9 5 19 10 S 0,0
21.09.2018 15:00:00 30,2 15,1 9 5 18 10 S 0,0
21.09.2018 14:00:00 30,8 16,4 7 4 16 8 SSW -
21.09.2018 13:00:00 29,6 16,4 6 4 15 8 SSW 0,0
21.09.2018 12:00:00 30,3 15,6 2 1 8 4 N 0,0
21.09.2018 11:00:00 26,8 14,9 4 2 7 4 WSW 0,0
21.09.2018 10:00:00 26,0 17,4 3 1 9 5 NE 0,0
21.09.2018 09:00:00 21,6 16,3 4 2 9 5 NE 0,0
21.09.2018 08:00:00 18,5 15,5 4 2 10 5 NNE -
21.09.2018 07:00:00 18,7 15,8 6 3 10 5 NNE 0,0
21.09.2018 06:00:00 18,7 15,5 5 3 9 5 N 0,0
21.09.2018 05:00:00 19,0 15,9 4 2 10 5 N 0,0
21.09.2018 04:00:00 19,7 16,3 3 2 9 5 NNE 0,0
21.09.2018 03:00:00 20,1 16,7 5 3 9 5 NE 0,0
21.09.2018 02:00:00 20,3 16,9 5 3 8 4 NE -
21.09.2018 01:00:00 20,8 17,2 5 3 9 5 NE 0,0
21.09.2018 00:00:00 21,1 17,5 5 3 6 3 NNE 0,0
20.09.2018 23:00:00 21,5 17,7 3 2 5 3 ENE 0,0
20.09.2018 22:00:00 22,5 17,9 0 0 2 1 N 0,0
20.09.2018 21:00:00 22,8 18,3 3 1 7 4 SSW 0,0
20.09.2018 20:00:00 24,0 19,5 4 2 10 6 S -
20.09.2018 19:00:00 25,5 17,5 9 5 16 9 S 0,0
20.09.2018 18:00:00 27,0 17,5 10 5 18 10 SSW 0,0
20.09.2018 17:00:00 28,8 17,4 9 5 20 11 SSW 0,0

tt = Température de l'air
td = dewpoint
ff = Vitesse du vent
fx = gusts
dd = Direction du vent
rr = Quantités de précipitations

stations d'obs. à proximité